CST,Max TemperatureF,Mean TemperatureF,Min TemperatureF,Max Dew PointF,MeanDew PointF,Min DewpointF,Max Humidity, Mean Humidity, Min Humidity, Max Sea Level PressureIn, Mean Sea Level PressureIn, Min Sea Level PressureIn, Max VisibilityMiles, Mean VisibilityMiles, Min VisibilityMiles, Max Wind SpeedMPH, Mean Wind SpeedMPH, Max Gust SpeedMPH,PrecipitationIn, CloudCover, Events, WindDirDegrees
2013-2-1,9,-2,-13,6,-8,-18,92,78,67,30.28,30.15,30.00,10,8,2,12,7,17,0.00,4,Snow,142
2013-2-2,12,2,-8,9,1,-12,92,83,74,30.15,30.05,29.93,10,9,1,12,5,,0.00,6,Snow,287
2013-2-3,14,9,4,12,7,1,92,84,76,30.08,30.00,29.93,10,7,2,17,10,22,0.00,6,Snow,323
2013-2-4,19,8,0,18,5,-4,94,81,66,30.04,29.93,29.69,10,9,1,13,5,17,0.01,5,Snow,98
2013-2-5,32,16,0,31,18,-2,99,88,78,30.05,29.84,29.64,10,9,0,18,10,28,0.00,4,,276
2013-2-6,29,16,4,25,16,2,94,89,83,30.06,29.96,29.85,10,9,2,15,5,14,0.00,4,Snow,83
2013-2-7,29,26,22,28,24,21,100,90,80,30.25,30.11,29.97,10,7,2,17,9,23,0.00,8,,8
2013-2-8,26,18,11,25,20,10,97,89,80,30.33,30.26,30.15,10,10,10,15,6,22,0.00,6,,117
2013-2-9,34,30,26,33,29,25,99,95,93,30.16,29.99,29.86,10,6,4,15,11,23,0.00,8,,144
2013-2-10,34,31,28,34,31,28,100,98,95,29.86,29.47,29.27,10,4,0,18,12,24,0.08,8,Rain-Snow,63
2013-2-11,29,22,14,28,20,12,100,88,80,30.03,29.80,29.39,10,9,2,18,12,25,0.00,7,,289
2013-2-12,32,22,11,25,18,10,96,88,73,30.03,29.89,29.79,10,10,7,12,7,,0.02,3,,227
2013-2-13,36,25,14,34,25,12,100,92,80,29.79,29.66,29.55,10,10,10,13,6,18,0.08,6,,243
2013-2-14,33,19,4,34,19,-1,100,85,63,30.19,29.92,29.60,10,10,10,21,12,25,0.00,3,,308
2013-2-15,16,8,0,10,2,-4,92,85,73,30.31,30.27,30.20,10,10,7,13,8,,0.00,1,Snow,283
2013-2-16,14,8,3,10,8,2,93,87,81,30.25,30.14,30.05,10,5,0,9,5,,0.00,6,Snow,94
2013-2-17,34,22,9,30,19,6,95,87,80,30.06,29.81,29.55,,,,21,10,25,0.00,1,,127
2013-2-18,34,19,3,33,17,-1,96,87,79,29.86,29.65,29.49,,,,29,15,39,0.00,7,,280
2013-2-19,2,-2,-6,-2,-7,-12,82,75,67,30.36,30.14,29.88,10,10,10,25,19,32,0.00,0,,296
2013-2-20,10,-2,-14,3,-6,-19,82,76,69,30.43,30.39,30.34,10,10,10,14,6,,0.00,0,,359
2013-2-21,20,11,2,16,7,-2,84,76,70,30.40,30.25,30.04,10,10,10,16,9,,0.00,2,,55
2013-2-22,26,22,19,23,20,16,96,90,80,30.03,29.91,29.86,10,7,2,16,11,20,0.01,7,Snow,346
2013-2-23,21,11,1,19,13,-1,100,92,85,29.94,29.87,29.84,10,5,0,13,7,,0.00,7,,268
2013-2-24,26,12,-3,20,9,-6,97,88,70,30.08,30.03,29.94,10,10,7,5,0,,0.01,3,,65
2013-2-25,29,20,10,26,20,10,96,91,85,30.09,30.06,30.01,10,7,4,6,1,,0.00,7,,273
2013-2-26,34,24,13,29,21,12,100,91,78,30.03,29.95,29.88,10,8,3,13,4,22,0.00,5,,354
2013-2-27,36,26,16,28,22,15,92,82,67,30.05,29.93,29.88,10,10,10,20,10,25,0.00,0,,325
2013-2-28,31,25,19,26,23,16,91,83,75,30.21,30.15,30.05,10,10,7,13,8,17,0.00,6,Snow-Thunderstorm,342